Time;durP1;ratioP1;P1;durP2;ratioP2;P2;SDS_P1;SDS_P2;PMS_P1;PMS_P2;Temp;Humidity;BMP_temperature;BMP_pressure;BME280_temperature;BME280_humidity;BME280_pressure;Samples;Min_cycle;Max_cycle;Signal;HPM_P1;HPM_P2
2021/12/29 00:02:06;;;;;;;;;;;;;;;15.39;58.63;100566.41;6156806;23;1457;-39
2021/12/29 00:04:32;;;;;;;;;;;;;;;15.13;59.57;100567.56;6157412;23;1031;-39
2021/12/29 00:06:59;;;;;;;;;;;;;;;15.01;60.42;100569.31;6157289;23;1123;-39
2021/12/29 00:09:27;;;;;;;;;;;;;;;14.87;61.06;100565.00;6157478;23;1150;-39
2021/12/29 00:11:53;;;;;;;;;;;;;;;15.11;60.77;100573.00;6156850;23;1044;-39
2021/12/29 00:14:20;;;;;;;;;;;;;;;15.35;59.09;100586.28;6157028;23;1134;-40
2021/12/29 00:16:46;;;;;;;;;;;;;;;15.70;58.14;100583.59;6157037;23;1079;-39
2021/12/29 00:19:13;;;;;;;;;;;;;;;16.01;57.48;100588.38;6156965;23;1911;-39
2021/12/29 00:21:39;;;;;;;;;;;;;;;16.14;57.69;100582.94;6157036;23;1067;-39
2021/12/29 00:24:06;;;;;;;;;;;;;;;16.36;57.34;100592.75;6156905;23;1091;-39
2021/12/29 00:26:35;;;;;;;;;;;;;;;16.25;57.37;100591.78;6157374;23;1051;-39
2021/12/29 00:29:01;;;;;;;;;;;;;;;16.37;57.48;100607.78;6157667;23;1073;-39
2021/12/29 00:31:28;;;;;;;;;;;;;;;16.25;57.94;100586.47;6157191;23;1074;-39
2021/12/29 00:33:55;;;;;;;;;;;;;;;16.37;57.45;100603.28;6157285;23;1002;-39
2021/12/29 00:36:21;;;;;;;;;;;;;;;16.30;56.84;100605.59;6156726;23;1114;-39
2021/12/29 00:38:48;;;;;;;;;;;;;;;16.33;56.64;100584.97;6157162;23;1936;-39
2021/12/29 00:41:15;;;;;;;;;;;;;;;16.32;57.56;100586.81;6157284;23;1067;-39
2021/12/29 00:43:44;;;;;;;;;;;;;;;16.32;57.29;100591.31;6157106;23;1142;-39
2021/12/29 00:46:12;;;;;;;;;;;;;;;16.28;57.72;100580.84;6157018;23;1006;-39
2021/12/29 00:48:41;;;;;;;;;;;;;;;16.20;58.04;100591.28;6156891;23;1046;-40
2021/12/29 00:51:09;;;;;;;;;;;;;;;16.26;58.05;100597.97;6156814;23;1075;-39
2021/12/29 00:53:36;;;;;;;;;;;;;;;16.23;56.84;100593.69;6156992;23;1077;-39
2021/12/29 00:56:03;;;;;;;;;;;;;;;16.11;57.69;100602.69;6157257;23;1085;-41
2021/12/29 00:58:29;;;;;;;;;;;;;;;16.17;56.95;100594.19;6156751;23;1115;-39
2021/12/29 01:00:57;;;;;;;;;;;;;;;16.17;57.55;100609.34;6156950;23;1897;-39
2021/12/29 01:03:24;;;;;;;;;;;;;;;16.49;57.07;100593.44;6155890;23;1537;-39
2021/12/29 01:05:50;;;;;;;;;;;;;;;16.37;56.91;100592.59;6156940;23;1114;-39
2021/12/29 01:08:17;;;;;;;;;;;;;;;15.78;58.09;100593.69;6156667;23;1108;-40
2021/12/29 01:10:44;;;;;;;;;;;;;;;15.41;59.86;100611.59;6156710;23;1015;-39
2021/12/29 01:13:14;;;;;;;;;;;;;;;15.11;60.32;100599.63;6156854;23;1011;-39
2021/12/29 01:15:56;;;;;;;;;;;;;;;15.00;60.15;100600.44;6157252;23;1046;-39
2021/12/29 01:18:24;;;;;;;;;;;;;;;15.17;59.21;100604.50;6156398;23;1067;-39
2021/12/29 01:20:51;;;;;;;;;;;;;;;15.42;59.45;100603.50;6157189;23;1905;-39
2021/12/29 01:23:18;;;;;;;;;;;;;;;15.62;59.05;100601.16;6157052;23;1077;-39
2021/12/29 01:25:44;;;;;;;;;;;;;;;15.99;57.59;100604.50;6156774;23;1041;-39
2021/12/29 01:28:10;;;;;;;;;;;;;;;16.17;57.44;100596.03;6156751;23;1011;-39
2021/12/29 01:30:37;;;;;;;;;;;;;;;16.34;56.78;100584.88;6156611;23;1074;-39
2021/12/29 01:33:06;;;;;;;;;;;;;;;16.50;57.10;100577.31;6156274;23;1074;-39
2021/12/29 01:35:34;;;;;;;;;;;;;;;16.47;57.14;100584.72;6157016;23;1058;-39
2021/12/29 01:38:00;;;;;;;;;;;;;;;16.33;57.29;100580.47;6156603;23;1042;-39
2021/12/29 01:40:27;;;;;;;;;;;;;;;16.42;57.06;100586.91;6156514;23;1897;-39
2021/12/29 01:42:54;;;;;;;;;;;;;;;16.26;57.59;100592.63;6156464;23;1010;-39
2021/12/29 01:45:20;;;;;;;;;;;;;;;16.23;56.93;100584.84;6156567;23;1047;-39
2021/12/29 01:47:48;;;;;;;;;;;;;;;16.26;57.56;100577.47;6156441;23;1074;-39
2021/12/29 01:50:14;;;;;;;;;;;;;;;16.32;57.36;100586.81;6156930;23;1090;-39
2021/12/29 01:52:50;;;;;;;;;;;;;;;16.37;57.60;100578.44;6156435;23;991;-39
2021/12/29 01:55:16;;;;;;;;;;;;;;;16.27;57.75;100579.19;6156540;23;1069;-39
2021/12/29 01:57:44;;;;;;;;;;;;;;;16.40;57.45;100586.19;6155999;23;1087;-39
2021/12/29 02:00:12;;;;;;;;;;;;;;;16.40;56.55;100592.38;6156580;23;1936;-39
2021/12/29 02:02:38;;;;;;;;;;;;;;;16.43;57.11;100585.94;6155769;23;1384;-39
2021/12/29 02:05:05;;;;;;;;;;;;;;;16.41;57.56;100594.09;6156805;23;1049;-39
2021/12/29 02:07:32;;;;;;;;;;;;;;;16.33;57.27;100601.00;6156007;23;1115;-39
2021/12/29 02:09:59;;;;;;;;;;;;;;;16.07;57.92;100604.72;6155987;23;1063;-39
2021/12/29 02:12:26;;;;;;;;;;;;;;;15.65;59.71;100608.88;6155799;23;1095;-39
2021/12/29 02:14:53;;;;;;;;;;;;;;;15.36;58.96;100603.97;6156185;23;1066;-39
2021/12/29 02:17:19;;;;;;;;;;;;;;;15.16;59.62;100588.63;6156202;23;1086;-39
2021/12/29 02:19:46;;;;;;;;;;;;;;;15.08;60.46;100586.53;6156661;23;1897;-39
2021/12/29 02:22:28;;;;;;;;;;;;;;;15.39;60.28;100587.75;6156300;23;995;-39
2021/12/29 02:25:07;;;;;;;;;;;;;;;15.54;59.22;100576.88;6156040;23;1066;-39
2021/12/29 02:27:33;;;;;;;;;;;;;;;15.94;57.92;100587.19;6156225;23;1077;-39
2021/12/29 02:30:00;;;;;;;;;;;;;;;16.06;58.61;100581.72;6155850;23;1155;-39
2021/12/29 02:32:26;;;;;;;;;;;;;;;16.27;57.87;100576.50;6156096;23;1148;-41
2021/12/29 02:34:53;;;;;;;;;;;;;;;16.39;57.38;100555.97;6156466;23;1085;-39
2021/12/29 02:37:22;;;;;;;;;;;;;;;16.63;56.74;100554.97;6156085;23;1078;-39
2021/12/29 02:39:50;;;;;;;;;;;;;;;16.44;57.56;100563.63;6156095;23;1938;-39
2021/12/29 02:42:19;;;;;;;;;;;;;;;16.45;57.03;100566.19;6156677;23;994;-39
2021/12/29 02:44:46;;;;;;;;;;;;;;;16.57;57.07;100568.81;6156190;23;1085;-39
2021/12/29 02:47:13;;;;;;;;;;;;;;;16.47;57.36;100568.69;6156507;23;1077;-39
2021/12/29 02:49:39;;;;;;;;;;;;;;;16.40;57.67;100552.34;6156156;23;1091;-39
2021/12/29 02:52:08;;;;;;;;;;;;;;;16.35;57.83;100551.00;6155711;23;1146;-39
2021/12/29 02:54:36;;;;;;;;;;;;;;;16.36;57.46;100556.22;6155596;23;951;-39
2021/12/29 02:57:03;;;;;;;;;;;;;;;16.42;57.48;100545.06;6156093;23;1073;-39
2021/12/29 02:59:29;;;;;;;;;;;;;;;16.26;57.69;100544.59;6155293;23;1897;-39
2021/12/29 03:01:56;;;;;;;;;;;;;;;16.25;57.85;100521.56;6152845;23;3458;-60
2021/12/29 03:04:22;;;;;;;;;;;;;;;16.24;57.92;100538.56;6157693;23;1046;-60
2021/12/29 03:06:49;;;;;;;;;;;;;;;16.18;57.96;100545.22;6157018;23;979;-60
2021/12/29 03:09:17;;;;;;;;;;;;;;;16.11;57.39;100549.34;6157045;23;1012;-59
2021/12/29 03:11:45;;;;;;;;;;;;;;;15.68;58.59;100531.38;6157470;23;1054;-59
2021/12/29 03:14:12;;;;;;;;;;;;;;;15.40;60.52;100536.16;6157097;23;1023;-60
2021/12/29 03:16:39;;;;;;;;;;;;;;;15.20;60.75;100532.34;6157150;23;1857;-59
2021/12/29 03:19:06;;;;;;;;;;;;;;;15.06;60.48;100535.19;6157698;23;1070;-60
2021/12/29 03:21:33;;;;;;;;;;;;;;;15.55;58.68;100523.47;6157503;23;1953;-59
2021/12/29 03:24:00;;;;;;;;;;;;;;;15.67;58.38;100519.84;6157295;23;971;-60
2021/12/29 03:26:27;;;;;;;;;;;;;;;15.96;57.70;100515.91;6157569;23;1023;-60
2021/12/29 03:28:57;;;;;;;;;;;;;;;16.00;57.66;100509.34;6159046;23;1015;-60
2021/12/29 03:31:24;;;;;;;;;;;;;;;15.59;60.05;100516.91;6159431;23;1035;-60
2021/12/29 03:33:50;;;;;;;;;;;;;;;15.34;59.99;100512.66;6159221;23;999;-60
2021/12/29 03:36:18;;;;;;;;;;;;;;;15.15;59.95;100520.34;6159191;23;1058;-59
2021/12/29 03:38:45;;;;;;;;;;;;;;;15.00;60.91;100515.22;6158863;23;1078;-59
2021/12/29 03:41:13;;;;;;;;;;;;;;;14.94;60.19;100513.03;6159524;23;1941;-59
2021/12/29 03:43:41;;;;;;;;;;;;;;;14.86;60.12;100507.41;6159075;23;1049;-59
2021/12/29 03:46:09;;;;;;;;;;;;;;;14.82;60.30;100509.47;6159238;23;979;-59
2021/12/29 03:48:37;;;;;;;;;;;;;;;14.78;59.85;100515.09;6159129;23;970;-59
2021/12/29 03:51:04;;;;;;;;;;;;;;;14.75;60.53;100518.00;6159126;23;1038;-59
2021/12/29 03:53:31;;;;;;;;;;;;;;;14.74;60.05;100516.31;6159103;23;1054;-59
2021/12/29 03:55:58;;;;;;;;;;;;;;;14.68;60.47;100523.78;6159339;23;1014;-59
2021/12/29 03:58:26;;;;;;;;;;;;;;;14.69;60.69;100533.47;6158752;23;1075;-60
2021/12/29 04:00:55;;;;;;;;;;;;;;;14.61;60.73;100535.84;6158314;23;1897;-60
2021/12/29 04:03:23;;;;;;;;;;;;;;;14.57;61.82;100529.03;6158773;23;1970;-61
2021/12/29 04:05:49;;;;;;;;;;;;;;;14.54;62.22;100542.53;6158674;23;1042;-60
2021/12/29 04:08:16;;;;;;;;;;;;;;;14.47;62.01;100542.13;6159280;23;1061;-59
2021/12/29 04:10:43;;;;;;;;;;;;;;;14.45;60.94;100544.06;6158628;23;1051;-59
2021/12/29 04:13:10;;;;;;;;;;;;;;;14.43;61.36;100539.81;6158952;23;1069;-59
2021/12/29 04:15:37;;;;;;;;;;;;;;;14.40;62.32;100540.03;6158513;23;1115;-59
2021/12/29 04:18:14;;;;;;;;;;;;;;;14.39;61.63;100538.34;6158819;23;1045;-61
2021/12/29 04:20:58;;;;;;;;;;;;;;;14.33;62.28;100544.94;6159163;23;1893;-60
2021/12/29 04:23:27;;;;;;;;;;;;;;;14.26;61.57;100544.53;6158556;23;1036;-60
2021/12/29 04:25:54;;;;;;;;;;;;;;;14.27;62.42;100546.25;6158478;23;2000;-60
2021/12/29 04:28:23;;;;;;;;;;;;;;;14.28;61.77;100541.75;6158386;23;1016;-60
2021/12/29 04:30:50;;;;;;;;;;;;;;;14.29;62.11;100544.31;6158781;23;1062;-59
2021/12/29 04:33:17;;;;;;;;;;;;;;;14.23;61.27;100539.44;6158460;23;1095;-59
2021/12/29 04:35:45;;;;;;;;;;;;;;;14.26;61.37;100539.19;6158545;23;1056;-59
2021/12/29 04:38:12;;;;;;;;;;;;;;;14.27;62.05;100524.13;6159029;23;979;-60
2021/12/29 04:40:38;;;;;;;;;;;;;;;14.26;61.69;100530.38;6158038;23;1932;-59
2021/12/29 04:43:05;;;;;;;;;;;;;;;14.29;60.44;100520.38;6158727;23;1050;-59
2021/12/29 04:45:32;;;;;;;;;;;;;;;14.21;61.48;100517.44;6158172;23;1079;-60
2021/12/29 04:47:59;;;;;;;;;;;;;;;14.09;60.98;100516.50;6158466;23;990;-59
2021/12/29 04:50:28;;;;;;;;;;;;;;;14.07;60.96;100517.56;6159033;23;1038;-60
2021/12/29 04:52:57;;;;;;;;;;;;;;;14.08;61.74;100519.25;6158086;23;1020;-59
2021/12/29 04:55:24;;;;;;;;;;;;;;;14.07;61.75;100529.03;6158680;23;1186;-59
2021/12/29 04:57:50;;;;;;;;;;;;;;;14.06;60.89;100521.16;6158126;23;1020;-59
2021/12/29 05:00:21;;;;;;;;;;;;;;;13.99;60.93;100507.47;6157694;23;1944;-59
2021/12/29 05:02:47;;;;;;;;;;;;;;;14.07;61.67;100513.09;6157970;23;1466;-59
2021/12/29 05:05:22;;;;;;;;;;;;;;;14.09;61.35;100513.84;6158793;23;1026;-59
2021/12/29 05:10:35;;;;;;;;;;;;;;;14.05;61.06;100508.84;6158304;23;610;-61
2021/12/29 05:13:01;;;;;;;;;;;;;;;14.04;61.02;100517.78;6158374;23;970;-61
2021/12/29 05:15:28;;;;;;;;;;;;;;;14.03;61.78;100510.78;6157969;23;1074;-59
2021/12/29 05:17:55;;;;;;;;;;;;;;;14.01;61.91;100515.34;6158397;23;971;-59
2021/12/29 05:20:22;;;;;;;;;;;;;;;13.97;62.57;100528.00;6158346;23;1897;-59
2021/12/29 05:22:49;;;;;;;;;;;;;;;13.98;61.41;100523.53;6157915;23;1056;-59
2021/12/29 05:25:16;;;;;;;;;;;;;;;14.00;61.31;100521.63;6157777;23;1004;-61
2021/12/29 05:27:43;;;;;;;;;;;;;;;13.95;61.24;100526.38;6158254;23;994;-59
2021/12/29 05:30:11;;;;;;;;;;;;;;;13.94;61.43;100522.88;6157721;23;1192;-60
2021/12/29 05:32:37;;;;;;;;;;;;;;;13.85;61.04;100510.28;6157853;23;1032;-59
2021/12/29 05:35:04;;;;;;;;;;;;;;;13.82;61.40;100508.66;6158288;23;1011;-59
2021/12/29 05:37:30;;;;;;;;;;;;;;;13.83;62.09;100510.38;6157729;23;1086;-59
2021/12/29 05:39:57;;;;;;;;;;;;;;;13.82;61.69;100500.69;6157722;23;1024;-59
2021/12/29 05:42:23;;;;;;;;;;;;;;;13.89;61.69;100487.81;6157871;23;1897;-59
2021/12/29 05:44:51;;;;;;;;;;;;;;;13.86;62.05;100482.72;6157694;23;1059;-60
2021/12/29 05:47:18;;;;;;;;;;;;;;;13.89;61.94;100487.81;6157730;23;1019;-59
2021/12/29 05:49:45;;;;;;;;;;;;;;;13.89;61.63;100483.34;6157814;23;1083;-60
2021/12/29 05:52:13;;;;;;;;;;;;;;;13.86;62.05;100494.19;6158109;23;1065;-60
2021/12/29 05:54:40;;;;;;;;;;;;;;;13.85;61.15;100495.16;6157640;23;1059;-60
2021/12/29 05:57:06;;;;;;;;;;;;;;;13.81;61.42;100499.00;6158065;23;1034;-59
2021/12/29 05:59:33;;;;;;;;;;;;;;;13.84;61.41;100497.91;6157993;23;995;-61
2021/12/29 06:02:01;;;;;;;;;;;;;;;13.81;62.11;100520.25;6157277;23;1897;-60
2021/12/29 06:04:28;;;;;;;;;;;;;;;13.78;61.63;100507.16;6158309;23;974;-60
2021/12/29 06:06:54;;;;;;;;;;;;;;;13.78;61.64;100516.97;6157929;23;1066;-60
2021/12/29 06:09:21;;;;;;;;;;;;;;;13.76;62.39;100530.34;6157808;23;1065;-60
2021/12/29 06:11:47;;;;;;;;;;;;;;;13.74;62.41;100511.00;6157736;23;979;-60
2021/12/29 06:14:14;;;;;;;;;;;;;;;13.70;62.24;100515.69;6157895;23;995;-59
2021/12/29 06:16:40;;;;;;;;;;;;;;;13.68;62.62;100514.94;6157782;23;1061;-59
2021/12/29 06:19:08;;;;;;;;;;;;;;;13.66;61.70;100521.31;6157840;23;1059;-59
2021/12/29 06:21:35;;;;;;;;;;;;;;;13.66;62.46;100529.28;6157399;23;1940;-59
2021/12/29 06:24:01;;;;;;;;;;;;;;;13.65;61.83;100517.81;6157334;23;1051;-60
2021/12/29 06:26:28;;;;;;;;;;;;;;;13.67;62.61;100533.66;6157756;23;975;-60
2021/12/29 06:28:55;;;;;;;;;;;;;;;13.66;62.00;100508.03;6157612;23;963;-60
2021/12/29 06:31:21;;;;;;;;;;;;;;;13.72;61.42;100504.94;6158014;23;999;-59
2021/12/29 06:33:48;;;;;;;;;;;;;;;13.71;61.87;100517.41;6157757;23;1045;-61
2021/12/29 06:36:16;;;;;;;;;;;;;;;13.72;61.54;100521.72;6157357;23;1035;-59
2021/12/29 06:38:42;;;;;;;;;;;;;;;13.75;62.20;100514.50;6157344;23;1058;-60
2021/12/29 06:41:09;;;;;;;;;;;;;;;13.71;61.35;100514.72;6157400;23;1893;-60
2021/12/29 06:43:35;;;;;;;;;;;;;;;13.68;61.43;100506.97;6157554;23;1049;-59
2021/12/29 06:46:02;;;;;;;;;;;;;;;13.72;62.15;100507.59;6157494;23;1027;-60
2021/12/29 06:48:29;;;;;;;;;;;;;;;13.71;61.96;100540.47;6157390;23;1061;-59
2021/12/29 06:50:55;;;;;;;;;;;;;;;13.66;61.60;100523.97;6157608;23;999;-60
2021/12/29 06:53:23;;;;;;;;;;;;;;;13.65;61.43;100527.63;6157334;23;1039;-60
2021/12/29 06:55:50;;;;;;;;;;;;;;;13.64;62.55;100529.41;6157799;23;995;-59
2021/12/29 06:58:16;;;;;;;;;;;;;;;13.64;62.25;100523.25;6157485;23;990;-59
2021/12/29 07:00:43;;;;;;;;;;;;;;;13.62;61.47;100526.00;6157035;23;1948;-59
2021/12/29 07:03:09;;;;;;;;;;;;;;;13.67;61.99;100523.88;6159470;23;1281;-60
2021/12/29 07:05:36;;;;;;;;;;;;;;;13.69;61.43;100526.44;6160007;23;982;-61
2021/12/29 07:08:03;;;;;;;;;;;;;;;13.66;61.54;100518.66;6159478;23;1046;-59
2021/12/29 07:10:32;;;;;;;;;;;;;;;13.62;62.02;100526.00;6159155;23;919;-60
2021/12/29 07:12:58;;;;;;;;;;;;;;;13.57;61.77;100514.84;6159430;23;1073;-60
2021/12/29 07:15:25;;;;;;;;;;;;;;;13.57;62.63;100516.63;6159576;23;967;-59
2021/12/29 07:17:51;;;;;;;;;;;;;;;13.53;61.72;100519.53;6159449;23;978;-59
2021/12/29 07:20:18;;;;;;;;;;;;;;;13.57;62.61;100529.91;6159934;23;967;-59
2021/12/29 07:22:44;;;;;;;;;;;;;;;13.60;62.28;100540.34;6159303;23;1937;-60
2021/12/29 07:25:11;;;;;;;;;;;;;;;13.58;61.83;100547.56;6159365;23;979;-59
2021/12/29 07:27:39;;;;;;;;;;;;;;;13.53;62.65;100546.09;6159479;23;971;-60
2021/12/29 07:30:06;;;;;;;;;;;;;;;13.53;61.75;100545.25;6158881;23;1056;-60
2021/12/29 07:32:33;;;;;;;;;;;;;;;13.55;61.89;100550.44;6159323;23;967;-60
2021/12/29 07:35:00;;;;;;;;;;;;;;;13.49;61.78;100547.25;6159799;23;955;-61
2021/12/29 07:37:26;;;;;;;;;;;;;;;13.58;62.64;100552.88;6159345;23;1106;-59
2021/12/29 07:39:53;;;;;;;;;;;;;;;13.55;62.13;100553.09;6159164;23;1050;-59
2021/12/29 07:42:19;;;;;;;;;;;;;;;13.47;62.65;100543.84;6158768;23;1893;-61
2021/12/29 07:44:49;;;;;;;;;;;;;;;13.50;61.70;100546.28;6159307;23;1051;-59
2021/12/29 07:47:16;;;;;;;;;;;;;;;13.52;61.38;100556.81;6159207;23;1151;-59
2021/12/29 07:49:42;;;;;;;;;;;;;;;13.53;62.27;100555.88;6159517;23;1043;-60
2021/12/29 07:52:09;;;;;;;;;;;;;;;13.49;61.67;100554.38;6158888;23;1142;-60
2021/12/29 07:54:36;;;;;;;;;;;;;;;13.50;62.52;100564.03;6158816;23;1043;-60
2021/12/29 07:57:02;;;;;;;;;;;;;;;13.52;61.76;100554.16;6158724;23;1090;-59
2021/12/29 07:59:29;;;;;;;;;;;;;;;13.54;62.26;100552.25;6159015;23;1062;-59
2021/12/29 08:01:57;;;;;;;;;;;;;;;13.53;62.61;100555.88;6158377;23;1940;-59
2021/12/29 08:04:23;;;;;;;;;;;;;;;13.55;62.26;100551.31;6159118;23;1046;-60
2021/12/29 08:06:52;;;;;;;;;;;;;;;13.48;62.33;100542.88;6159406;23;967;-60
2021/12/29 08:09:18;;;;;;;;;;;;;;;13.55;61.80;100550.44;6159278;23;928;-59
2021/12/29 08:11:45;;;;;;;;;;;;;;;13.52;62.46;100559.47;6158402;23;1055;-60
2021/12/29 08:14:11;;;;;;;;;;;;;;;13.46;62.87;100560.72;6158976;23;1050;-61
2021/12/29 08:16:38;;;;;;;;;;;;;;;13.48;62.14;100553.50;6158977;23;987;-60
2021/12/29 08:19:06;;;;;;;;;;;;;;;13.49;62.66;100544.59;6158874;23;969;-59
2021/12/29 08:21:33;;;;;;;;;;;;;;;13.47;62.51;100551.81;6158550;23;1901;-60
2021/12/29 08:23:59;;;;;;;;;;;;;;;13.43;62.60;100550.34;6158370;23;1510;-59
2021/12/29 08:26:26;;;;;;;;;;;;;;;13.47;62.43;100554.47;6158932;23;1034;-60
2021/12/29 08:28:57;;;;;;;;;;;;;;;13.49;62.70;100551.72;6158875;23;999;-60
2021/12/29 08:31:23;;;;;;;;;;;;;;;13.50;61.73;100558.72;6158988;23;951;-59
2021/12/29 08:33:50;;;;;;;;;;;;;;;13.47;61.58;100554.47;6159030;23;1003;-60
2021/12/29 08:36:18;;;;;;;;;;;;;;;13.50;61.61;100556.06;6158429;23;1067;-59
2021/12/29 08:38:44;;;;;;;;;;;;;;;13.46;61.46;100550.09;6158488;23;1063;-59
2021/12/29 08:41:11;;;;;;;;;;;;;;;13.42;61.53;100548.63;6158347;23;1004;-59
2021/12/29 08:43:38;;;;;;;;;;;;;;;13.47;62.07;100550.97;6158907;23;1893;-60
2021/12/29 08:46:05;;;;;;;;;;;;;;;13.42;62.79;100538.00;6158709;23;1003;-60
2021/12/29 08:48:31;;;;;;;;;;;;;;;13.42;62.55;100555.75;6158245;23;1055;-59
2021/12/29 08:50:59;;;;;;;;;;;;;;;13.41;62.34;100546.06;6159239;23;1865;-59
2021/12/29 08:53:27;;;;;;;;;;;;;;;13.34;62.53;100540.31;6158560;23;975;-59
2021/12/29 08:55:55;;;;;;;;;;;;;;;13.37;62.49;100556.06;6158985;23;1981;-61
2021/12/29 08:58:24;;;;;;;;;;;;;;;13.35;62.84;100551.78;6158056;23;1197;-60
2021/12/29 09:00:51;;;;;;;;;;;;;;;13.40;63.30;100547.03;6157801;23;1038;-60
2021/12/29 09:03:18;;;;;;;;;;;;;;;13.42;62.66;100548.63;6158315;23;1944;-60
2021/12/29 09:05:45;;;;;;;;;;;;;;;13.34;62.21;100556.25;6158620;23;1057;-60
2021/12/29 09:08:11;;;;;;;;;;;;;;;13.42;62.62;100548.63;6158278;23;1083;-59
2021/12/29 09:10:39;;;;;;;;;;;;;;;13.41;62.30;100548.72;6158369;23;968;-59
2021/12/29 09:13:06;;;;;;;;;;;;;;;13.42;62.68;100543.31;6158031;23;1055;-59
2021/12/29 09:15:33;;;;;;;;;;;;;;;13.40;62.41;100539.91;6158399;23;1069;-60
2021/12/29 09:18:00;;;;;;;;;;;;;;;13.41;62.68;100525.69;6157963;23;1001;-61
2021/12/29 09:20:30;;;;;;;;;;;;;;;13.35;62.23;100512.81;6158396;23;1060;-60
2021/12/29 09:22:58;;;;;;;;;;;;;;;13.32;62.49;100513.88;6157949;23;1893;-60
2021/12/29 09:25:25;;;;;;;;;;;;;;;13.32;61.99;100513.03;6157804;23;982;-60
2021/12/29 09:27:53;;;;;;;;;;;;;;;13.34;62.76;100513.75;6158184;23;1061;-60
2021/12/29 09:30:20;;;;;;;;;;;;;;;13.37;62.67;100508.25;6158107;23;987;-59
2021/12/29 09:32:47;;;;;;;;;;;;;;;13.40;62.80;100502.72;6158240;23;1021;-60
2021/12/29 09:35:16;;;;;;;;;;;;;;;13.33;61.91;100490.84;6158247;23;1055;-60
2021/12/29 09:37:43;;;;;;;;;;;;;;;13.31;62.22;100482.97;6157736;23;1019;-60
2021/12/29 09:40:10;;;;;;;;;;;;;;;13.37;62.73;100478.16;6157702;23;1051;-60
2021/12/29 09:42:37;;;;;;;;;;;;;;;13.36;62.80;100485.28;6157926;23;1944;-61
2021/12/29 09:45:07;;;;;;;;;;;;;;;13.38;62.83;100483.38;6157729;23;1071;-60
2021/12/29 09:47:33;;;;;;;;;;;;;;;13.41;62.50;100492.94;6158128;23;963;-60
2021/12/29 09:50:00;;;;;;;;;;;;;;;13.34;62.47;100481.91;6158106;23;1071;-61
2021/12/29 09:52:33;;;;;;;;;;;;;;;13.37;62.27;100476.38;6157804;23;1070;-60
2021/12/29 09:55:04;;;;;;;;;;;;;;;13.36;61.89;100474.66;6157590;23;991;-60
2021/12/29 09:57:30;;;;;;;;;;;;;;;13.36;62.35;100485.28;6157670;23;1016;-60
2021/12/29 09:59:57;;;;;;;;;;;;;;;13.36;61.95;100485.28;6157819;23;1047;-59
2021/12/29 10:02:25;;;;;;;;;;;;;;;13.34;62.75;100473.94;6157155;23;1930;-59
2021/12/29 10:04:52;;;;;;;;;;;;;;;13.30;62.83;100475.09;6157945;23;1027;-59
2021/12/29 10:07:19;;;;;;;;;;;;;;;13.31;62.61;100484.78;6157833;23;1215;-59
2021/12/29 10:09:46;;;;;;;;;;;;;;;13.31;62.67;100466.19;6157851;23;974;-59
2021/12/29 10:12:19;;;;;;;;;;;;;;;13.28;62.45;100476.97;6157829;23;935;-60
2021/12/29 10:14:47;;;;;;;;;;;;;;;13.27;62.90;100464.63;6157867;23;1049;-60
2021/12/29 10:17:15;;;;;;;;;;;;;;;13.23;62.55;100466.69;6157842;23;1216;-59
2021/12/29 10:19:43;;;;;;;;;;;;;;;13.26;62.63;100457.66;6157768;23;1043;-59
2021/12/29 10:22:19;;;;;;;;;;;;;;;13.25;62.99;100463.91;6157376;23;1942;-60
2021/12/29 10:24:46;;;;;;;;;;;;;;;13.29;61.81;100457.41;6157636;23;1023;-59
2021/12/29 10:27:18;;;;;;;;;;;;;;;13.29;62.83;100452.09;6157759;23;1010;-60
2021/12/29 10:29:45;;;;;;;;;;;;;;;13.26;62.46;100449.69;6157700;23;963;-60
2021/12/29 10:32:11;;;;;;;;;;;;;;;13.29;62.80;100447.69;6157715;23;1057;-60
2021/12/29 10:34:38;;;;;;;;;;;;;;;13.32;62.55;100466.06;6157655;23;1043;-60
2021/12/29 10:37:08;;;;;;;;;;;;;;;13.28;62.43;100461.03;6157197;23;1129;-60
2021/12/29 10:39:35;;;;;;;;;;;;;;;13.28;62.60;100459.22;6157762;23;1069;-59
2021/12/29 10:42:06;;;;;;;;;;;;;;;13.26;62.69;100455.84;6157246;23;1934;-60
2021/12/29 10:44:33;;;;;;;;;;;;;;;13.23;62.69;100452.53;6157358;23;1265;-60
2021/12/29 10:47:00;;;;;;;;;;;;;;;13.25;62.05;100451.50;6157618;23;967;-60
2021/12/29 10:49:28;;;;;;;;;;;;;;;13.25;62.44;100440.00;6157614;23;1034;-60
2021/12/29 10:51:56;;;;;;;;;;;;;;;13.26;62.91;100425.78;6157593;23;978;-60
2021/12/29 10:54:26;;;;;;;;;;;;;;;13.26;62.62;100423.97;6157065;23;1011;-60
2021/12/29 10:57:00;;;;;;;;;;;;;;;13.24;62.86;100430.34;6157160;23;1011;-60
2021/12/29 10:59:30;;;;;;;;;;;;;;;13.25;62.88;100440.88;6157205;23;955;-60
2021/12/29 11:01:57;;;;;;;;;;;;;;;13.28;62.66;100445.13;6156789;23;1938;-59
2021/12/29 11:04:24;;;;;;;;;;;;;;;13.27;61.87;100435.44;6157948;23;1205;-60
2021/12/29 11:06:51;;;;;;;;;;;;;;;13.28;62.90;100455.72;6157128;23;1074;-59
2021/12/29 11:09:25;;;;;;;;;;;;;;;13.21;62.43;100438.50;6157633;23;1140;-60
2021/12/29 11:11:51;;;;;;;;;;;;;;;13.25;62.61;100447.97;6157521;23;1065;-60
2021/12/29 11:14:21;;;;;;;;;;;;;;;13.25;62.08;100430.25;6157025;23;1039;-60
2021/12/29 11:16:48;;;;;;;;;;;;;;;13.27;62.78;100432.78;6157589;23;967;-60
2021/12/29 11:19:15;;;;;;;;;;;;;;;13.23;62.56;100408.25;6157416;23;1051;-60
2021/12/29 11:21:42;;;;;;;;;;;;;;;13.19;62.58;100406.78;6157054;23;1060;-59
2021/12/29 11:24:13;;;;;;;;;;;;;;;13.22;62.46;100413.69;6156921;23;1957;-60
2021/12/29 11:26:41;;;;;;;;;;;;;;;13.22;62.38;100421.66;6157350;23;1049;-60
2021/12/29 11:29:11;;;;;;;;;;;;;;;13.19;62.81;100422.72;6157481;23;1029;-59
2021/12/29 11:31:38;;;;;;;;;;;;;;;13.22;62.82;100429.59;6157180;23;1039;-59
2021/12/29 11:34:16;;;;;;;;;;;;;;;13.19;62.76;100419.19;6157282;23;1275;-59
2021/12/29 11:36:42;;;;;;;;;;;;;;;13.19;62.53;100398.81;6157443;23;1009;-61
2021/12/29 11:39:09;;;;;;;;;;;;;;;13.20;62.79;100394.34;6156953;23;1082;-60
2021/12/29 11:41:35;;;;;;;;;;;;;;;13.18;62.37;100398.91;6157379;23;936;-59
2021/12/29 11:44:04;;;;;;;;;;;;;;;13.17;62.88;100406.03;6156998;23;1932;-60
2021/12/29 11:46:30;;;;;;;;;;;;;;;13.18;62.55;100417.50;6157353;23;963;-59
2021/12/29 11:48:58;;;;;;;;;;;;;;;13.18;62.49;100406.88;6159254;23;1037;-59
2021/12/29 11:51:38;;;;;;;;;;;;;;;13.18;62.02;100397.09;6159200;23;967;-60
2021/12/29 11:54:11;;;;;;;;;;;;;;;13.22;62.55;100419.81;6158771;23;1027;-59
2021/12/29 11:56:40;;;;;;;;;;;;;;;13.18;62.40;100396.25;6158763;23;1024;-59
2021/12/29 11:59:09;;;;;;;;;;;;;;;13.24;61.99;100407.28;6159087;23;994;-60
2021/12/29 12:01:36;;;;;;;;;;;;;;;13.23;61.72;100395.00;6158537;23;1351;-60
2021/12/29 12:04:03;;;;;;;;;;;;;;;13.19;62.77;100387.31;6159314;23;1869;-60
2021/12/29 12:06:31;;;;;;;;;;;;;;;13.20;62.73;100395.19;6158972;23;1878;-59
2021/12/29 12:09:01;;;;;;;;;;;;;;;13.15;62.90;100381.41;6159085;23;1069;-60
2021/12/29 12:11:29;;;;;;;;;;;;;;;13.16;62.88;100387.56;6158961;23;1135;-61
2021/12/29 12:13:56;;;;;;;;;;;;;;;13.11;62.25;100375.44;6158843;23;971;-59
2021/12/29 12:16:26;;;;;;;;;;;;;;;13.17;62.88;100389.25;6159250;23;2077;-59
2021/12/29 12:18:54;;;;;;;;;;;;;;;13.12;62.93;100382.44;6159247;23;1038;-59
2021/12/29 12:21:23;;;;;;;;;;;;;;;13.18;62.68;100393.59;6158539;23;1092;-60
2021/12/29 12:23:50;;;;;;;;;;;;;;;13.16;62.38;100395.53;6158844;23;1940;-59
2021/12/29 12:26:18;;;;;;;;;;;;;;;13.14;62.31;100404.44;6158720;23;1149;-59
2021/12/29 12:28:45;;;;;;;;;;;;;;;13.16;62.31;100409.63;6158625;23;1040;-59
2021/12/29 12:31:20;;;;;;;;;;;;;;;13.17;62.68;100421.97;6158996;23;1062;-61
2021/12/29 12:33:48;;;;;;;;;;;;;;;13.19;62.01;100419.19;6158794;23;983;-59
2021/12/29 12:36:15;;;;;;;;;;;;;;;13.14;62.75;100411.53;6158442;23;1011;-61
2021/12/29 12:38:43;;;;;;;;;;;;;;;13.20;62.57;100410.28;6158760;23;975;-60
2021/12/29 12:41:10;;;;;;;;;;;;;;;13.17;62.70;100415.78;6158888;23;1057;-59
2021/12/29 12:43:48;;;;;;;;;;;;;;;13.18;62.41;100428.13;6158592;23;1897;-60
2021/12/29 12:46:15;;;;;;;;;;;;;;;13.14;62.59;100428.31;6159027;23;975;-59
2021/12/29 12:48:42;;;;;;;;;;;;;;;13.12;62.05;100418.78;6158551;23;963;-60
2021/12/29 12:51:16;;;;;;;;;;;;;;;13.18;62.90;100442.25;6158355;23;1071;-61
2021/12/29 12:53:42;;;;;;;;;;;;;;;13.10;62.59;100421.53;6158105;23;1059;-59